Friday, December 19, 2014
00:33 UTC
  |  Log In   |  Register Free
Airport Search:

Farmington Regional Airport
(KFAM)

Farmington Regional Airport Diagram
No Airport Diagram Available

FAA data valid effective November 13, 2014 - January 08, 2015 (unless otherwise noted).

 
 
 
 
 
 
 
 
 
 
 
 
 
 

Current Aviation Weather for Farmington Regional Airport (KFAM)

The most recent METAR observation for KFAM was updated at: 2113
METAR Summary (Translated METAR)
KFAM
182055Z AUTO 03004KT 8SM OVC008 01/01 A3021 RMK AO1 57010
KSAR
182115Z AUTO 00000KT 5SM BR SCT007 OVC013 00/M01 A3024 RMK AO2 T00041006
(41.7 nm NE from KFAM)
KSAR
182115Z AUTO 00000KT 5SM BR SCT007 OVC013 00/M01 A3024 RMK AO2 T00041006
(41.7 nm NE from KFAM)
TAF
No TAF information found within 50 nm of KFAM
  Airport Weather Conditions for KFAM

 Current Weather at FAM
34° F
Overcast
North winds at 4.6 mph
FAM NOAA Radar

Pressure: 30.22 in
Humidity: 100%
Wind: North at 4.6 MPH (4 KT)
Dew Point: 33.8°F
Visibility: 5.00 mi


Airport Weather Forecast for KFAM

Translated METAR and TAF for KFAM
Translated METAR for KFAM (0034 UTC 19 December 2014)
found at http://aviationweather.gov/adds/metars/
 
METAR text: KFAM 190015Z AUTO 02005KT 7SM OVC006 01/01 A3023 RMK AO1
Conditions at: KFAM (FARMINGTON , MO, US) observed 0015 UTC 19 December 2014
Temperature: 1.0°C (34°F)
Dewpoint: 1.0°C (34°F) [RH = 100%]
Pressure (altimeter): 30.23 inches Hg (1023.8 mb)
Winds: from the NNE (20 degrees) at 6 MPH (5 knots; 2.6 m/s)
Visibility: 7 miles (11 km)
Ceiling: 600 feet AGL
Clouds: overcast cloud deck at 600 feet AGL
Weather: automated observation with no human augmentation;
there may or may not be significant weather present at this time
Translated TAF for KFAM

There is no translated TAF available for this airport

Find All Airport Services Find A Hotel Find A Rental Car Find A Golf Course Find A Restaurant $100 Hamburger



FBO's on the Field
FBO Company Facility Photos Services Transportation Aviation Fuel Prices: Prices include tax
Catering Weather Repair Courtesy Rental Type 100LL JetA JetA+ MOGAS 8087
 
Farmington Regional Airport

This FBO has not yet been rated
FS:Shell
Last Updated: Dec-08
Login to update fuel prices
SS:
Contact Farmington Regional AirportMore FBO Information
 
Add another FBO Facility Photos Catering Weather Repair Courtesy Rental Type 100LL JetA JetA+ MOGAS 8087
Services Transportation Aviation Fuel Prices: Prices include tax


model-print
model-print
model-print
model-print